sensor_id;sensor_type;location;lat;lon;timestamp;temperature;humidity
13488;DHT22;6816;48.506;9.050;2023-04-06T00:01:30;2.50;82.20
13488;DHT22;6816;48.506;9.050;2023-04-06T00:04:31;2.60;82.30
13488;DHT22;6816;48.506;9.050;2023-04-06T00:07:32;2.50;82.40
13488;DHT22;6816;48.506;9.050;2023-04-06T00:10:33;2.50;82.80
13488;DHT22;6816;48.506;9.050;2023-04-06T00:13:34;2.50;82.90
13488;DHT22;6816;48.506;9.050;2023-04-06T00:16:35;2.50;83.00
13488;DHT22;6816;48.506;9.050;2023-04-06T00:19:36;2.40;83.10
13488;DHT22;6816;48.506;9.050;2023-04-06T00:22:37;2.40;83.20
13488;DHT22;6816;48.506;9.050;2023-04-06T00:25:37;2.40;83.10
13488;DHT22;6816;48.506;9.050;2023-04-06T00:28:38;2.40;83.10
13488;DHT22;6816;48.506;9.050;2023-04-06T00:31:39;2.40;83.90
13488;DHT22;6816;48.506;9.050;2023-04-06T00:34:39;2.40;83.30
13488;DHT22;6816;48.506;9.050;2023-04-06T00:37:40;2.30;83.30
13488;DHT22;6816;48.506;9.050;2023-04-06T00:40:42;2.30;83.50
13488;DHT22;6816;48.506;9.050;2023-04-06T00:43:44;2.30;83.60
13488;DHT22;6816;48.506;9.050;2023-04-06T00:46:45;2.20;83.50
13488;DHT22;6816;48.506;9.050;2023-04-06T00:49:46;2.20;83.50
13488;DHT22;6816;48.506;9.050;2023-04-06T00:52:47;2.10;83.60
13488;DHT22;6816;48.506;9.050;2023-04-06T00:55:48;2.20;83.50
13488;DHT22;6816;48.506;9.050;2023-04-06T00:58:49;2.10;83.50
13488;DHT22;6816;48.506;9.050;2023-04-06T01:01:50;2.00;83.60
13488;DHT22;6816;48.506;9.050;2023-04-06T01:04:52;2.00;83.90
13488;DHT22;6816;48.506;9.050;2023-04-06T01:07:53;2.00;83.90
13488;DHT22;6816;48.506;9.050;2023-04-06T01:10:53;1.90;83.90
13488;DHT22;6816;48.506;9.050;2023-04-06T01:13:54;1.90;84.00
13488;DHT22;6816;48.506;9.050;2023-04-06T01:16:59;1.90;84.10
13488;DHT22;6816;48.506;9.050;2023-04-06T01:20:00;2.00;84.20
13488;DHT22;6816;48.506;9.050;2023-04-06T01:23:01;1.80;84.10
13488;DHT22;6816;48.506;9.050;2023-04-06T01:26:02;1.80;84.20
13488;DHT22;6816;48.506;9.050;2023-04-06T01:29:03;1.80;84.20
13488;DHT22;6816;48.506;9.050;2023-04-06T01:32:04;1.70;84.30
13488;DHT22;6816;48.506;9.050;2023-04-06T01:35:05;1.70;84.30
13488;DHT22;6816;48.506;9.050;2023-04-06T01:38:05;1.70;84.40
13488;DHT22;6816;48.506;9.050;2023-04-06T01:41:06;1.70;84.60
13488;DHT22;6816;48.506;9.050;2023-04-06T01:44:07;1.70;84.60
13488;DHT22;6816;48.506;9.050;2023-04-06T01:47:07;1.60;84.40
13488;DHT22;6816;48.506;9.050;2023-04-06T01:50:08;1.60;84.60
13488;DHT22;6816;48.506;9.050;2023-04-06T01:53:09;1.50;84.50
13488;DHT22;6816;48.506;9.050;2023-04-06T01:56:10;1.50;84.60
13488;DHT22;6816;48.506;9.050;2023-04-06T01:59:11;1.50;84.70
13488;DHT22;6816;48.506;9.050;2023-04-06T02:02:11;1.50;84.90
13488;DHT22;6816;48.506;9.050;2023-04-06T02:05:13;1.40;84.80
13488;DHT22;6816;48.506;9.050;2023-04-06T02:08:14;1.40;84.90
13488;DHT22;6816;48.506;9.050;2023-04-06T02:11:14;1.40;84.90
13488;DHT22;6816;48.506;9.050;2023-04-06T02:14:15;1.40;84.90
13488;DHT22;6816;48.506;9.050;2023-04-06T02:17:16;1.30;84.90
13488;DHT22;6816;48.506;9.050;2023-04-06T02:20:16;1.30;85.10
13488;DHT22;6816;48.506;9.050;2023-04-06T02:23:17;1.30;85.30
13488;DHT22;6816;48.506;9.050;2023-04-06T02:26:18;1.30;85.30
13488;DHT22;6816;48.506;9.050;2023-04-06T02:29:18;1.30;85.30
13488;DHT22;6816;48.506;9.050;2023-04-06T02:32:20;1.20;85.30
13488;DHT22;6816;48.506;9.050;2023-04-06T02:35:21;1.20;85.40
13488;DHT22;6816;48.506;9.050;2023-04-06T02:38:21;1.20;85.50
13488;DHT22;6816;48.506;9.050;2023-04-06T02:41:22;1.20;85.50
13488;DHT22;6816;48.506;9.050;2023-04-06T02:44:23;1.10;85.40
13488;DHT22;6816;48.506;9.050;2023-04-06T02:47:23;1.10;85.40
13488;DHT22;6816;48.506;9.050;2023-04-06T02:50:24;1.10;85.40
13488;DHT22;6816;48.506;9.050;2023-04-06T02:53:25;1.10;85.50
13488;DHT22;6816;48.506;9.050;2023-04-06T02:56:26;1.10;85.60
13488;DHT22;6816;48.506;9.050;2023-04-06T02:59:27;1.00;85.60
13488;DHT22;6816;48.506;9.050;2023-04-06T03:02:27;1.00;85.80
13488;DHT22;6816;48.506;9.050;2023-04-06T03:05:28;1.00;85.80
13488;DHT22;6816;48.506;9.050;2023-04-06T03:08:29;1.00;85.90
13488;DHT22;6816;48.506;9.050;2023-04-06T03:11:30;0.90;85.90
13488;DHT22;6816;48.506;9.050;2023-04-06T03:14:30;0.90;85.90
13488;DHT22;6816;48.506;9.050;2023-04-06T03:17:31;0.90;86.00
13488;DHT22;6816;48.506;9.050;2023-04-06T03:20:32;0.80;86.00
13488;DHT22;6816;48.506;9.050;2023-04-06T03:23:32;0.80;86.10
13488;DHT22;6816;48.506;9.050;2023-04-06T03:26:33;0.80;86.30
13488;DHT22;6816;48.506;9.050;2023-04-06T03:29:34;0.80;86.30
13488;DHT22;6816;48.506;9.050;2023-04-06T03:32:34;0.80;86.40
13488;DHT22;6816;48.506;9.050;2023-04-06T03:35:35;0.80;86.40
13488;DHT22;6816;48.506;9.050;2023-04-06T03:38:37;0.80;86.40
13488;DHT22;6816;48.506;9.050;2023-04-06T03:41:37;0.80;86.50
13488;DHT22;6816;48.506;9.050;2023-04-06T03:44:38;0.70;86.50
13488;DHT22;6816;48.506;9.050;2023-04-06T03:47:39;0.70;86.70
13488;DHT22;6816;48.506;9.050;2023-04-06T03:50:40;0.70;86.70
13488;DHT22;6816;48.506;9.050;2023-04-06T03:53:41;0.70;86.80
13488;DHT22;6816;48.506;9.050;2023-04-06T03:56:42;0.70;86.70
13488;DHT22;6816;48.506;9.050;2023-04-06T03:59:42;0.70;86.70
13488;DHT22;6816;48.506;9.050;2023-04-06T04:02:43;0.60;86.60
13488;DHT22;6816;48.506;9.050;2023-04-06T04:05:44;0.60;86.60
13488;DHT22;6816;48.506;9.050;2023-04-06T04:08:44;0.60;86.60
13488;DHT22;6816;48.506;9.050;2023-04-06T04:11:45;0.60;86.70
13488;DHT22;6816;48.506;9.050;2023-04-06T04:14:46;0.60;86.90
13488;DHT22;6816;48.506;9.050;2023-04-06T04:17:46;0.50;86.80
13488;DHT22;6816;48.506;9.050;2023-04-06T04:20:49;0.50;86.90
13488;DHT22;6816;48.506;9.050;2023-04-06T04:23:50;0.50;86.90
13488;DHT22;6816;48.506;9.050;2023-04-06T04:26:50;0.50;87.00
13488;DHT22;6816;48.506;9.050;2023-04-06T04:29:51;0.50;87.10
13488;DHT22;6816;48.506;9.050;2023-04-06T04:32:52;0.40;87.00
13488;DHT22;6816;48.506;9.050;2023-04-06T04:35:52;0.50;87.20
13488;DHT22;6816;48.506;9.050;2023-04-06T04:38:53;0.40;87.20
13488;DHT22;6816;48.506;9.050;2023-04-06T04:41:54;0.40;87.30
13488;DHT22;6816;48.506;9.050;2023-04-06T04:44:54;0.40;87.30
13488;DHT22;6816;48.506;9.050;2023-04-06T04:47:55;0.40;88.20
13488;DHT22;6816;48.506;9.050;2023-04-06T04:50:56;0.40;87.50
13488;DHT22;6816;48.506;9.050;2023-04-06T04:53:56;0.40;87.60
13488;DHT22;6816;48.506;9.050;2023-04-06T04:56:58;0.40;87.60
13488;DHT22;6816;48.506;9.050;2023-04-06T04:59:58;0.40;87.70
13488;DHT22;6816;48.506;9.050;2023-04-06T05:02:59;0.40;87.80
13488;DHT22;6816;48.506;9.050;2023-04-06T05:06:00;0.50;87.90
13488;DHT22;6816;48.506;9.050;2023-04-06T05:09:00;0.50;88.00
13488;DHT22;6816;48.506;9.050;2023-04-06T05:12:01;0.60;88.10
13488;DHT22;6816;48.506;9.050;2023-04-06T05:15:02;0.50;88.10
13488;DHT22;6816;48.506;9.050;2023-04-06T05:18:03;0.50;88.30
13488;DHT22;6816;48.506;9.050;2023-04-06T05:21:04;0.60;88.40
13488;DHT22;6816;48.506;9.050;2023-04-06T05:24:05;0.50;88.30
13488;DHT22;6816;48.506;9.050;2023-04-06T05:27:06;0.60;88.30
13488;DHT22;6816;48.506;9.050;2023-04-06T05:30:08;0.60;88.40
13488;DHT22;6816;48.506;9.050;2023-04-06T05:33:09;0.60;88.60
13488;DHT22;6816;48.506;9.050;2023-04-06T05:36:10;0.60;88.70
13488;DHT22;6816;48.506;9.050;2023-04-06T05:39:13;0.70;88.80
13488;DHT22;6816;48.506;9.050;2023-04-06T05:42:14;0.70;88.90
13488;DHT22;6816;48.506;9.050;2023-04-06T05:45:15;0.80;89.20
13488;DHT22;6816;48.506;9.050;2023-04-06T05:48:19;0.80;89.40
13488;DHT22;6816;48.506;9.050;2023-04-06T05:51:20;0.90;89.60
13488;DHT22;6816;48.506;9.050;2023-04-06T05:54:20;1.00;90.00
13488;DHT22;6816;48.506;9.050;2023-04-06T05:57:21;1.10;90.20
13488;DHT22;6816;48.506;9.050;2023-04-06T06:00:22;1.40;90.40
13488;DHT22;6816;48.506;9.050;2023-04-06T06:03:23;1.40;90.50
13488;DHT22;6816;48.506;9.050;2023-04-06T06:06:23;1.60;90.70
13488;DHT22;6816;48.506;9.050;2023-04-06T06:09:24;1.90;90.80
13488;DHT22;6816;48.506;9.050;2023-04-06T06:12:25;2.20;90.80
13488;DHT22;6816;48.506;9.050;2023-04-06T06:15:26;2.30;90.70
13488;DHT22;6816;48.506;9.050;2023-04-06T06:18:26;2.50;90.70
13488;DHT22;6816;48.506;9.050;2023-04-06T06:21:27;2.80;90.80
13488;DHT22;6816;48.506;9.050;2023-04-06T06:24:28;3.00;90.80
13488;DHT22;6816;48.506;9.050;2023-04-06T06:27:31;3.20;90.80
13488;DHT22;6816;48.506;9.050;2023-04-06T06:30:32;3.40;90.80
13488;DHT22;6816;48.506;9.050;2023-04-06T06:33:33;3.60;90.80
13488;DHT22;6816;48.506;9.050;2023-04-06T06:36:33;3.80;90.90
13488;DHT22;6816;48.506;9.050;2023-04-06T06:39:35;4.00;90.70
13488;DHT22;6816;48.506;9.050;2023-04-06T06:42:36;4.20;90.30
13488;DHT22;6816;48.506;9.050;2023-04-06T06:45:37;4.30;90.00
13488;DHT22;6816;48.506;9.050;2023-04-06T06:48:38;4.30;89.50
13488;DHT22;6816;48.506;9.050;2023-04-06T06:51:38;4.30;89.20
13488;DHT22;6816;48.506;9.050;2023-04-06T06:54:39;4.40;88.90
13488;DHT22;6816;48.506;9.050;2023-04-06T06:57:40;4.40;88.70
13488;DHT22;6816;48.506;9.050;2023-04-06T07:00:42;4.40;88.50
13488;DHT22;6816;48.506;9.050;2023-04-06T07:03:43;4.40;88.50
13488;DHT22;6816;48.506;9.050;2023-04-06T07:06:43;4.40;88.20
13488;DHT22;6816;48.506;9.050;2023-04-06T07:09:44;4.40;88.10
13488;DHT22;6816;48.506;9.050;2023-04-06T07:12:45;4.40;88.10
13488;DHT22;6816;48.506;9.050;2023-04-06T07:15:46;4.40;88.20
13488;DHT22;6816;48.506;9.050;2023-04-06T07:18:47;4.40;88.30
13488;DHT22;6816;48.506;9.050;2023-04-06T07:21:49;4.40;88.40
13488;DHT22;6816;48.506;9.050;2023-04-06T07:24:50;4.40;88.40
13488;DHT22;6816;48.506;9.050;2023-04-06T07:27:50;4.40;88.50
13488;DHT22;6816;48.506;9.050;2023-04-06T07:30:51;4.50;88.70
13488;DHT22;6816;48.506;9.050;2023-04-06T07:33:52;4.50;88.80
13488;DHT22;6816;48.506;9.050;2023-04-06T07:36:52;4.60;88.90
13488;DHT22;6816;48.506;9.050;2023-04-06T07:39:54;4.70;88.70
13488;DHT22;6816;48.506;9.050;2023-04-06T07:42:55;4.80;88.80
13488;DHT22;6816;48.506;9.050;2023-04-06T07:45:55;4.90;88.90
13488;DHT22;6816;48.506;9.050;2023-04-06T07:49:00;5.00;88.90
13488;DHT22;6816;48.506;9.050;2023-04-06T07:52:04;5.10;89.00
13488;DHT22;6816;48.506;9.050;2023-04-06T07:55:05;5.20;89.20
13488;DHT22;6816;48.506;9.050;2023-04-06T07:58:05;5.30;89.10
13488;DHT22;6816;48.506;9.050;2023-04-06T08:01:07;5.40;89.10
13488;DHT22;6816;48.506;9.050;2023-04-06T08:04:07;5.50;88.90
13488;DHT22;6816;48.506;9.050;2023-04-06T08:07:08;5.70;88.90
13488;DHT22;6816;48.506;9.050;2023-04-06T08:10:09;5.80;89.20
13488;DHT22;6816;48.506;9.050;2023-04-06T08:13:10;5.90;88.70
13488;DHT22;6816;48.506;9.050;2023-04-06T08:16:10;6.00;88.20
13488;DHT22;6816;48.506;9.050;2023-04-06T08:19:11;6.10;87.90
13488;DHT22;6816;48.506;9.050;2023-04-06T08:22:12;6.20;87.70
13488;DHT22;6816;48.506;9.050;2023-04-06T08:25:12;6.40;87.70
13488;DHT22;6816;48.506;9.050;2023-04-06T08:28:13;6.50;87.50
13488;DHT22;6816;48.506;9.050;2023-04-06T08:31:14;6.60;87.40
13488;DHT22;6816;48.506;9.050;2023-04-06T08:34:15;6.70;87.50
13488;DHT22;6816;48.506;9.050;2023-04-06T08:37:15;6.80;87.50
13488;DHT22;6816;48.506;9.050;2023-04-06T08:40:16;7.00;87.60
13488;DHT22;6816;48.506;9.050;2023-04-06T08:43:17;7.10;87.00
13488;DHT22;6816;48.506;9.050;2023-04-06T08:46:21;7.30;86.80
13488;DHT22;6816;48.506;9.050;2023-04-06T08:49:22;7.40;86.50
13488;DHT22;6816;48.506;9.050;2023-04-06T08:52:24;7.60;86.50
13488;DHT22;6816;48.506;9.050;2023-04-06T08:55:25;7.80;86.50
13488;DHT22;6816;48.506;9.050;2023-04-06T08:58:28;7.90;86.40
13488;DHT22;6816;48.506;9.050;2023-04-06T09:01:31;8.10;85.80
13488;DHT22;6816;48.506;9.050;2023-04-06T09:04:34;8.30;86.80
13488;DHT22;6816;48.506;9.050;2023-04-06T09:07:36;8.60;86.90
13488;DHT22;6816;48.506;9.050;2023-04-06T09:10:41;8.80;86.70
13488;DHT22;6816;48.506;9.050;2023-04-06T09:13:53;9.10;86.00
13488;DHT22;6816;48.506;9.050;2023-04-06T09:16:54;9.40;84.30
13488;DHT22;6816;48.506;9.050;2023-04-06T09:19:56;9.70;87.20
13488;DHT22;6816;48.506;9.050;2023-04-06T09:22:57;10.00;86.80
13488;DHT22;6816;48.506;9.050;2023-04-06T09:26:15;10.40;87.30
13488;DHT22;6816;48.506;9.050;2023-04-06T09:29:26;10.70;84.60
13488;DHT22;6816;48.506;9.050;2023-04-06T09:32:27;11.10;83.60
13488;DHT22;6816;48.506;9.050;2023-04-06T09:35:27;11.40;86.40
13488;DHT22;6816;48.506;9.050;2023-04-06T09:38:30;11.80;86.00
13488;DHT22;6816;48.506;9.050;2023-04-06T09:41:32;12.30;86.30
13488;DHT22;6816;48.506;9.050;2023-04-06T09:44:33;12.80;85.40
13488;DHT22;6816;48.506;9.050;2023-04-06T09:47:36;13.20;85.40
13488;DHT22;6816;48.506;9.050;2023-04-06T09:50:37;13.70;84.10
13488;DHT22;6816;48.506;9.050;2023-04-06T09:53:42;14.20;84.40
13488;DHT22;6816;48.506;9.050;2023-04-06T09:56:55;14.70;82.20
13488;DHT22;6816;48.506;9.050;2023-04-06T10:00:08;15.10;81.90
13488;DHT22;6816;48.506;9.050;2023-04-06T10:06:33;15.80;73.80
13488;DHT22;6816;48.506;9.050;2023-04-06T10:09:36;16.00;78.30
13488;DHT22;6816;48.506;9.050;2023-04-06T10:12:38;16.20;77.70
13488;DHT22;6816;48.506;9.050;2023-04-06T10:15:40;16.50;76.60
13488;DHT22;6816;48.506;9.050;2023-04-06T10:18:46;16.70;75.70
13488;DHT22;6816;48.506;9.050;2023-04-06T10:21:51;16.90;73.60
13488;DHT22;6816;48.506;9.050;2023-04-06T10:24:53;17.10;73.20
13488;DHT22;6816;48.506;9.050;2023-04-06T10:28:08;17.20;73.80
13488;DHT22;6816;48.506;9.050;2023-04-06T10:31:09;17.30;68.20
13488;DHT22;6816;48.506;9.050;2023-04-06T10:34:10;17.40;73.30
13488;DHT22;6816;48.506;9.050;2023-04-06T10:37:14;17.60;72.30
13488;DHT22;6816;48.506;9.050;2023-04-06T10:40:23;17.70;70.20
13488;DHT22;6816;48.506;9.050;2023-04-06T10:43:33;17.90;68.00
13488;DHT22;6816;48.506;9.050;2023-04-06T10:46:35;18.10;66.30
13488;DHT22;6816;48.506;9.050;2023-04-06T10:49:36;18.20;69.40
13488;DHT22;6816;48.506;9.050;2023-04-06T10:52:36;18.40;69.50
13488;DHT22;6816;48.506;9.050;2023-04-06T10:55:39;18.60;68.80
13488;DHT22;6816;48.506;9.050;2023-04-06T10:58:53;18.80;68.70
13488;DHT22;6816;48.506;9.050;2023-04-06T11:01:56;19.10;63.30
13488;DHT22;6816;48.506;9.050;2023-04-06T11:04:57;19.30;67.80
13488;DHT22;6816;48.506;9.050;2023-04-06T11:07:57;19.40;66.00
13488;DHT22;6816;48.506;9.050;2023-04-06T11:11:12;19.60;64.70
13488;DHT22;6816;48.506;9.050;2023-04-06T11:14:16;19.80;59.80
13488;DHT22;6816;48.506;9.050;2023-04-06T11:17:24;20.10;65.90
13488;DHT22;6816;48.506;9.050;2023-04-06T11:20:25;20.30;64.90
13488;DHT22;6816;48.506;9.050;2023-04-06T11:23:26;20.60;64.50
13488;DHT22;6816;48.506;9.050;2023-04-06T11:26:27;20.80;64.20
13488;DHT22;6816;48.506;9.050;2023-04-06T11:29:29;21.10;62.80
13488;DHT22;6816;48.506;9.050;2023-04-06T11:32:42;21.20;61.60
13488;DHT22;6816;48.506;9.050;2023-04-06T11:35:43;21.30;57.00
13488;DHT22;6816;48.506;9.050;2023-04-06T11:38:44;21.30;60.30
13488;DHT22;6816;48.506;9.050;2023-04-06T11:41:50;21.40;59.20
13488;DHT22;6816;48.506;9.050;2023-04-06T11:44:58;21.40;56.80
13488;DHT22;6816;48.506;9.050;2023-04-06T11:48:00;21.30;57.90
13488;DHT22;6816;48.506;9.050;2023-04-06T11:51:01;21.30;57.20
13488;DHT22;6816;48.506;9.050;2023-04-06T11:54:02;21.20;56.10
13488;DHT22;6816;48.506;9.050;2023-04-06T11:57:07;21.10;56.70
13488;DHT22;6816;48.506;9.050;2023-04-06T12:00:09;21.10;55.50
13488;DHT22;6816;48.506;9.050;2023-04-06T12:03:13;21.00;56.90
13488;DHT22;6816;48.506;9.050;2023-04-06T12:06:14;20.90;57.20
13488;DHT22;6816;48.506;9.050;2023-04-06T12:09:16;20.70;55.90
13488;DHT22;6816;48.506;9.050;2023-04-06T12:12:17;20.60;55.20
13488;DHT22;6816;48.506;9.050;2023-04-06T12:15:18;20.40;55.30
13488;DHT22;6816;48.506;9.050;2023-04-06T12:18:19;20.30;55.10
13488;DHT22;6816;48.506;9.050;2023-04-06T12:21:20;20.10;54.50
13488;DHT22;6816;48.506;9.050;2023-04-06T12:24:20;20.00;54.20
13488;DHT22;6816;48.506;9.050;2023-04-06T12:27:21;19.90;55.20
13488;DHT22;6816;48.506;9.050;2023-04-06T12:30:22;19.80;56.10
13488;DHT22;6816;48.506;9.050;2023-04-06T12:33:22;19.80;55.30
13488;DHT22;6816;48.506;9.050;2023-04-06T12:36:23;19.80;55.40
13488;DHT22;6816;48.506;9.050;2023-04-06T12:39:24;19.80;55.60
13488;DHT22;6816;48.506;9.050;2023-04-06T12:42:25;19.90;56.40
13488;DHT22;6816;48.506;9.050;2023-04-06T12:45:26;20.00;56.60
13488;DHT22;6816;48.506;9.050;2023-04-06T12:48:27;20.20;55.80
13488;DHT22;6816;48.506;9.050;2023-04-06T12:51:28;20.40;55.40
13488;DHT22;6816;48.506;9.050;2023-04-06T12:54:29;20.50;55.80
13488;DHT22;6816;48.506;9.050;2023-04-06T12:57:30;20.60;54.40
13488;DHT22;6816;48.506;9.050;2023-04-06T13:00:31;20.70;54.40
13488;DHT22;6816;48.506;9.050;2023-04-06T13:03:32;20.80;53.30
13488;DHT22;6816;48.506;9.050;2023-04-06T13:06:33;20.80;53.00
13488;DHT22;6816;48.506;9.050;2023-04-06T13:09:33;20.70;53.10
13488;DHT22;6816;48.506;9.050;2023-04-06T13:12:34;20.70;53.00
13488;DHT22;6816;48.506;9.050;2023-04-06T13:15:35;20.80;52.50
13488;DHT22;6816;48.506;9.050;2023-04-06T13:18:36;20.80;52.40
13488;DHT22;6816;48.506;9.050;2023-04-06T13:21:39;20.90;52.10
13488;DHT22;6816;48.506;9.050;2023-04-06T13:24:40;20.90;51.70
13488;DHT22;6816;48.506;9.050;2023-04-06T13:27:40;21.00;51.60
13488;DHT22;6816;48.506;9.050;2023-04-06T13:30:41;20.90;52.50
13488;DHT22;6816;48.506;9.050;2023-04-06T13:33:42;20.90;52.10
13488;DHT22;6816;48.506;9.050;2023-04-06T13:36:42;20.90;51.70
13488;DHT22;6816;48.506;9.050;2023-04-06T13:39:43;20.90;52.00
13488;DHT22;6816;48.506;9.050;2023-04-06T13:42:44;20.80;52.10
13488;DHT22;6816;48.506;9.050;2023-04-06T13:45:50;20.70;52.70
13488;DHT22;6816;48.506;9.050;2023-04-06T13:48:51;20.70;50.40
13488;DHT22;6816;48.506;9.050;2023-04-06T13:51:52;20.60;51.50
13488;DHT22;6816;48.506;9.050;2023-04-06T13:54:53;20.50;52.10
13488;DHT22;6816;48.506;9.050;2023-04-06T13:57:53;20.40;51.30
13488;DHT22;6816;48.506;9.050;2023-04-06T14:01:01;20.30;51.70
13488;DHT22;6816;48.506;9.050;2023-04-06T14:04:02;20.30;51.50
13488;DHT22;6816;48.506;9.050;2023-04-06T14:07:03;20.10;52.10
13488;DHT22;6816;48.506;9.050;2023-04-06T14:10:04;20.10;51.80
13488;DHT22;6816;48.506;9.050;2023-04-06T14:13:05;20.00;51.60
13488;DHT22;6816;48.506;9.050;2023-04-06T14:16:06;20.00;52.00
13488;DHT22;6816;48.506;9.050;2023-04-06T14:19:07;20.10;52.70
13488;DHT22;6816;48.506;9.050;2023-04-06T14:22:08;20.30;52.90
13488;DHT22;6816;48.506;9.050;2023-04-06T14:25:09;20.40;52.00
13488;DHT22;6816;48.506;9.050;2023-04-06T14:28:11;20.60;52.20
13488;DHT22;6816;48.506;9.050;2023-04-06T14:31:13;20.60;52.20
13488;DHT22;6816;48.506;9.050;2023-04-06T14:34:15;20.50;51.50
13488;DHT22;6816;48.506;9.050;2023-04-06T14:37:17;20.40;50.80
13488;DHT22;6816;48.506;9.050;2023-04-06T14:40:18;20.30;50.80
13488;DHT22;6816;48.506;9.050;2023-04-06T14:43:18;20.10;50.40
13488;DHT22;6816;48.506;9.050;2023-04-06T14:46:19;19.90;50.80
13488;DHT22;6816;48.506;9.050;2023-04-06T14:49:20;19.70;50.80
13488;DHT22;6816;48.506;9.050;2023-04-06T14:52:20;19.50;50.80
13488;DHT22;6816;48.506;9.050;2023-04-06T14:55:21;19.40;50.90
13488;DHT22;6816;48.506;9.050;2023-04-06T14:58:22;19.20;50.90
13488;DHT22;6816;48.506;9.050;2023-04-06T15:01:23;19.10;51.00
13488;DHT22;6816;48.506;9.050;2023-04-06T15:04:23;18.90;51.20
13488;DHT22;6816;48.506;9.050;2023-04-06T15:07:24;18.90;51.60
13488;DHT22;6816;48.506;9.050;2023-04-06T15:10:25;18.80;51.30
13488;DHT22;6816;48.506;9.050;2023-04-06T15:13:25;18.70;51.60
13488;DHT22;6816;48.506;9.050;2023-04-06T15:16:26;18.60;51.80
13488;DHT22;6816;48.506;9.050;2023-04-06T15:19:26;18.50;52.10
13488;DHT22;6816;48.506;9.050;2023-04-06T15:22:28;18.40;51.80
13488;DHT22;6816;48.506;9.050;2023-04-06T15:25:29;18.40;52.00
13488;DHT22;6816;48.506;9.050;2023-04-06T15:28:30;18.30;52.60
13488;DHT22;6816;48.506;9.050;2023-04-06T15:31:31;18.30;52.90
13488;DHT22;6816;48.506;9.050;2023-04-06T15:34:33;18.30;52.70
13488;DHT22;6816;48.506;9.050;2023-04-06T15:37:34;18.20;52.80
13488;DHT22;6816;48.506;9.050;2023-04-06T15:40:42;18.20;53.90
13488;DHT22;6816;48.506;9.050;2023-04-06T15:43:43;18.10;52.00
13488;DHT22;6816;48.506;9.050;2023-04-06T15:46:44;18.00;54.30
13488;DHT22;6816;48.506;9.050;2023-04-06T15:49:44;17.90;54.00
13488;DHT22;6816;48.506;9.050;2023-04-06T15:52:45;17.80;54.40
13488;DHT22;6816;48.506;9.050;2023-04-06T15:55:46;17.80;54.20
13488;DHT22;6816;48.506;9.050;2023-04-06T15:58:47;17.70;53.20
13488;DHT22;6816;48.506;9.050;2023-04-06T16:01:48;17.60;53.60
13488;DHT22;6816;48.506;9.050;2023-04-06T16:04:49;17.50;53.60
13488;DHT22;6816;48.506;9.050;2023-04-06T16:07:49;17.40;53.50
13488;DHT22;6816;48.506;9.050;2023-04-06T16:10:50;17.40;53.70
13488;DHT22;6816;48.506;9.050;2023-04-06T16:13:51;17.30;53.90
13488;DHT22;6816;48.506;9.050;2023-04-06T16:16:52;17.30;53.80
13488;DHT22;6816;48.506;9.050;2023-04-06T16:19:54;17.20;53.90
13488;DHT22;6816;48.506;9.050;2023-04-06T16:22:55;17.20;53.80
13488;DHT22;6816;48.506;9.050;2023-04-06T16:25:55;17.10;54.70
13488;DHT22;6816;48.506;9.050;2023-04-06T16:28:57;17.00;54.10
13488;DHT22;6816;48.506;9.050;2023-04-06T16:31:58;17.00;54.00
13488;DHT22;6816;48.506;9.050;2023-04-06T16:34:59;16.90;53.90
13488;DHT22;6816;48.506;9.050;2023-04-06T16:37:59;16.80;53.70
13488;DHT22;6816;48.506;9.050;2023-04-06T16:41:01;16.60;53.40
13488;DHT22;6816;48.506;9.050;2023-04-06T16:44:02;16.50;53.50
13488;DHT22;6816;48.506;9.050;2023-04-06T16:47:02;16.40;53.40
13488;DHT22;6816;48.506;9.050;2023-04-06T16:50:04;16.30;53.70
13488;DHT22;6816;48.506;9.050;2023-04-06T16:53:05;16.20;53.60
13488;DHT22;6816;48.506;9.050;2023-04-06T16:56:06;16.10;53.90
13488;DHT22;6816;48.506;9.050;2023-04-06T16:59:08;16.00;54.00
13488;DHT22;6816;48.506;9.050;2023-04-06T17:02:09;15.90;53.90
13488;DHT22;6816;48.506;9.050;2023-04-06T17:05:10;15.80;54.10
13488;DHT22;6816;48.506;9.050;2023-04-06T17:08:10;15.70;54.40
13488;DHT22;6816;48.506;9.050;2023-04-06T17:11:12;15.60;54.50
13488;DHT22;6816;48.506;9.050;2023-04-06T17:14:13;15.50;54.30
13488;DHT22;6816;48.506;9.050;2023-04-06T17:17:14;15.50;54.40
13488;DHT22;6816;48.506;9.050;2023-04-06T17:20:15;15.40;54.20
13488;DHT22;6816;48.506;9.050;2023-04-06T17:23:16;15.30;54.30
13488;DHT22;6816;48.506;9.050;2023-04-06T17:26:17;15.20;54.30
13488;DHT22;6816;48.506;9.050;2023-04-06T17:29:17;15.10;54.30
13488;DHT22;6816;48.506;9.050;2023-04-06T17:32:18;15.10;54.20
13488;DHT22;6816;48.506;9.050;2023-04-06T17:35:19;15.00;54.20
13488;DHT22;6816;48.506;9.050;2023-04-06T17:38:20;14.90;54.30
13488;DHT22;6816;48.506;9.050;2023-04-06T17:41:22;14.80;54.30
13488;DHT22;6816;48.506;9.050;2023-04-06T17:44:23;14.70;54.30
13488;DHT22;6816;48.506;9.050;2023-04-06T17:47:25;14.60;54.30
13488;DHT22;6816;48.506;9.050;2023-04-06T17:50:31;14.50;54.40
13488;DHT22;6816;48.506;9.050;2023-04-06T17:53:32;14.50;54.70
13488;DHT22;6816;48.506;9.050;2023-04-06T17:56:33;14.40;55.40
13488;DHT22;6816;48.506;9.050;2023-04-06T17:59:34;14.30;55.10
13488;DHT22;6816;48.506;9.050;2023-04-06T18:02:35;14.20;55.10
13488;DHT22;6816;48.506;9.050;2023-04-06T18:05:36;14.20;55.20
13488;DHT22;6816;48.506;9.050;2023-04-06T18:08:36;14.10;55.20
13488;DHT22;6816;48.506;9.050;2023-04-06T18:11:37;14.00;55.50
13488;DHT22;6816;48.506;9.050;2023-04-06T18:14:38;14.00;55.70
13488;DHT22;6816;48.506;9.050;2023-04-06T18:17:39;13.90;55.60
13488;DHT22;6816;48.506;9.050;2023-04-06T18:20:40;13.80;55.80
13488;DHT22;6816;48.506;9.050;2023-04-06T18:23:41;13.70;56.50
13488;DHT22;6816;48.506;9.050;2023-04-06T18:26:41;13.60;56.30
13488;DHT22;6816;48.506;9.050;2023-04-06T18:29:42;13.60;56.60
13488;DHT22;6816;48.506;9.050;2023-04-06T18:32:46;13.60;56.80
13488;DHT22;6816;48.506;9.050;2023-04-06T18:35:48;13.50;56.90
13488;DHT22;6816;48.506;9.050;2023-04-06T18:38:48;13.50;57.00
13488;DHT22;6816;48.506;9.050;2023-04-06T18:41:49;13.40;57.10
13488;DHT22;6816;48.506;9.050;2023-04-06T18:44:49;13.40;57.40
13488;DHT22;6816;48.506;9.050;2023-04-06T18:47:50;13.30;57.40
13488;DHT22;6816;48.506;9.050;2023-04-06T18:50:52;13.30;57.60
13488;DHT22;6816;48.506;9.050;2023-04-06T18:53:53;13.30;57.60
13488;DHT22;6816;48.506;9.050;2023-04-06T18:56:53;13.20;57.70
13488;DHT22;6816;48.506;9.050;2023-04-06T18:59:54;13.10;57.90
13488;DHT22;6816;48.506;9.050;2023-04-06T19:02:55;13.10;58.00
13488;DHT22;6816;48.506;9.050;2023-04-06T19:05:55;13.00;58.10
13488;DHT22;6816;48.506;9.050;2023-04-06T19:08:56;13.00;58.30
13488;DHT22;6816;48.506;9.050;2023-04-06T19:11:58;12.90;58.60
13488;DHT22;6816;48.506;9.050;2023-04-06T19:14:58;12.90;59.00
13488;DHT22;6816;48.506;9.050;2023-04-06T19:17:59;12.80;59.20
13488;DHT22;6816;48.506;9.050;2023-04-06T19:21:00;12.80;59.50
13488;DHT22;6816;48.506;9.050;2023-04-06T19:24:00;12.70;59.70
13488;DHT22;6816;48.506;9.050;2023-04-06T19:27:01;12.60;60.00
13488;DHT22;6816;48.506;9.050;2023-04-06T19:30:05;12.60;60.50
13488;DHT22;6816;48.506;9.050;2023-04-06T19:33:06;12.60;60.50
13488;DHT22;6816;48.506;9.050;2023-04-06T19:36:07;12.50;60.70